This is the latest recevied weather packets stored in our database for station/object XE2AD-5. If no packets are shown the sender has not sent any weather packets the latest 10 day(s).
| Time | Temp. | Humidity | Pressure | Rain* | Wind** | Luminosity | Snow |
|---|---|---|---|---|---|---|---|
| 1777824639 | 25.56° C | 29% | 810.1 hPa | - | - | - | - |
| 1777821339 | 25.56° C | 30% | 810.2 hPa | - | - | - | - |
| 1777818038 | 26.11° C | 29% | 809.9 hPa | - | - | - | - |
| 1777814738 | 26.11° C | 29% | 809.3 hPa | - | - | - | - |
| 1777811438 | 26.67° C | 27% | 808.6 hPa | - | - | - | - |
| 1777808137 | 26.67° C | 27% | 808.1 hPa | - | - | - | - |
| 1777804836 | 27.22° C | 26% | 807.9 hPa | - | - | - | - |
| 1777801536 | 27.78° C | 24% | 807.9 hPa | - | - | - | - |
| 1777798236 | 27.78° C | 21% | 807.5 hPa | - | - | - | - |
| 1777794936 | 28.33° C | 20% | 807.5 hPa | - | - | - | - |
| 1777791635 | 28.33° C | 19% | 807.7 hPa | - | - | - | - |
| 1777788335 | 28.89° C | 19% | 807.3 hPa | - | - | - | - |
| 1777785035 | 28.89° C | 19% | 807.3 hPa | - | - | - | - |
| 1777781735 | 28.89° C | 17% | 807 hPa | - | - | - | - |
| 1777778435 | 29.44° C | 16% | 806.2 hPa | - | - | - | - |
| 1777775135 | 29.44° C | 17% | 805.4 hPa | - | - | - | - |
| 1777771835 | 29.44° C | 14% | 804.6 hPa | - | - | - | - |
| 1777768534 | 29.44° C | 14% | 804 hPa | - | - | - | - |
| 1777765234 | 29.44° C | 15% | 803.5 hPa | - | - | - | - |
| 1777761931 | 28.89° C | 15% | 803.3 hPa | - | - | - | - |
| 1777758631 | 28.89° C | 15% | 803.6 hPa | - | - | - | - |
| 1777755331 | 28.33° C | 16% | 804 hPa | - | - | - | - |
| 1777752031 | 27.78° C | 17% | 804.8 hPa | - | - | - | - |
| 1777748730 | 27.22° C | 20% | 805.5 hPa | - | - | - | - |
| 1777745430 | 26.67° C | 21% | 806.3 hPa | - | - | - | - |
* Rain since midnight (hover to see other rain measurements)
** Current wind speed in m/s (hover to see current wind gust speed)